Time;durP1;ratioP1;P1;durP2;ratioP2;P2;SDS_P1;SDS_P2;PMS_P1;PMS_P2;Temp;Humidity;BMP_temperature;BMP_pressure;BME280_temperature;BME280_humidity;BME280_pressure;Samples;Min_cycle;Max_cycle;Signal;HPM_P1;HPM_P2
2022/08/17 00:01:38;;;;;;;12.15;10.98;;;26.90;56.00;;;;;;4910245;56;22134;-27
2022/08/17 00:06:39;;;;;;;11.48;10.38;;;26.90;56.00;;;;;;4936422;52;20982;-29
2022/08/17 00:11:42;;;;;;;12.18;10.98;;;26.90;56.00;;;;;;4913056;52;20995;-27
2022/08/17 00:16:47;;;;;;;11.45;10.35;;;26.90;56.00;;;;;;4909933;52;21004;-28
2022/08/17 00:21:51;;;;;;;12.40;11.07;;;26.90;56.00;;;;;;4935651;52;21472;-33
2022/08/17 00:26:52;;;;;;;12.40;11.10;;;26.80;55.90;;;;;;4931628;52;21087;-26
2022/08/17 00:31:52;;;;;;;11.12;10.13;;;26.80;55.90;;;;;;4934180;52;21644;-30
2022/08/17 00:36:53;;;;;;;11.45;10.35;;;26.80;55.90;;;;;;4923045;52;21007;-30
2022/08/17 00:41:54;;;;;;;11.88;10.40;;;26.90;56.00;;;;;;4942733;52;22162;-35
2022/08/17 00:46:55;;;;;;;10.65;9.57;;;26.80;55.90;;;;;;4909221;56;21100;-30
2022/08/17 00:52:05;;;;;;;10.70;9.60;;;26.80;55.90;;;;;;4943775;52;21925;-28
2022/08/17 00:57:19;;;;;;;11.18;10.07;;;26.80;55.90;;;;;;4927401;52;21525;-28
2022/08/17 01:02:20;;;;;;;10.50;9.45;;;26.80;55.90;;;;;;4919668;52;21576;-32
2022/08/17 01:07:23;;;;;;;11.52;9.60;;;26.80;55.90;;;;;;4945520;52;21477;-33
2022/08/17 01:12:24;;;;;;;10.05;9.15;;;26.80;56.00;;;;;;4934642;52;21066;-28
2022/08/17 01:17:27;;;;;;;11.30;9.50;;;26.80;55.90;;;;;;4916416;52;21548;-26
2022/08/17 01:22:28;;;;;;;10.43;9.43;;;26.80;55.90;;;;;;4912033;52;21438;-26
2022/08/17 01:27:30;;;;;;;12.18;9.88;;;26.80;56.00;;;;;;4911239;52;20983;-24
2022/08/17 01:32:31;;;;;;;10.45;9.27;;;26.80;56.00;;;;;;4911015;52;20964;-30
2022/08/17 01:37:36;;;;;;;10.55;9.45;;;26.80;55.90;;;;;;4938460;52;20964;-32
2022/08/17 01:45:18;;;;;;;9.70;8.70;;;26.80;55.90;;;;;;4932608;52;21027;-30
2022/08/17 01:50:23;;;;;;;10.10;8.95;;;26.80;55.90;;;;;;4961115;52;21043;-27
2022/08/17 01:55:31;;;;;;;8.95;8.10;;;26.80;55.90;;;;;;4920466;52;20968;-31
2022/08/17 02:00:31;;;;;;;9.18;8.27;;;26.80;55.90;;;;;;4917905;52;21043;-25
2022/08/17 02:05:32;;;;;;;10.38;9.27;;;26.80;55.90;;;;;;4933028;52;21070;-32
2022/08/17 02:10:35;;;;;;;8.77;7.70;;;26.80;55.90;;;;;;4926858;52;20977;-33
2022/08/17 02:15:37;;;;;;;9.25;8.35;;;26.80;55.90;;;;;;4909730;56;21007;-26
2022/08/17 02:20:41;;;;;;;8.75;7.95;;;26.80;55.90;;;;;;4909678;56;21038;-24
2022/08/17 02:25:43;;;;;;;8.90;8.00;;;26.80;55.90;;;;;;4943994;52;21489;-25
2022/08/17 02:30:44;;;;;;;9.40;8.43;;;26.80;55.90;;;;;;4942813;52;21011;-26
2022/08/17 02:35:45;;;;;;;8.98;8.07;;;26.80;55.80;;;;;;4924582;52;20991;-28
2022/08/17 02:40:46;;;;;;;9.68;8.18;;;26.80;55.90;;;;;;4919791;52;21004;-25
2022/08/17 02:45:47;;;;;;;9.23;7.60;;;26.80;55.80;;;;;;4934772;52;22215;-26
2022/08/17 02:50:48;;;;;;;8.45;7.65;;;26.80;55.80;;;;;;4948899;52;21010;-31
2022/08/17 02:55:49;;;;;;;8.45;7.65;;;26.80;55.80;;;;;;4909288;56;22003;-23
2022/08/17 03:00:49;;;;;;;8.00;7.10;;;26.80;55.80;;;;;;4961692;52;21011;-34
2022/08/17 03:05:51;;;;;;;8.13;7.40;;;26.80;55.90;;;;;;4913236;52;20987;-35
2022/08/17 03:10:52;;;;;;;8.68;7.78;;;26.70;55.70;;;;;;4928119;52;22450;-26
2022/08/17 03:15:53;;;;;;;8.70;7.37;;;26.70;55.60;;;;;;4951457;52;21850;-27
2022/08/17 03:20:57;;;;;;;8.23;7.43;;;26.70;55.80;;;;;;4929073;52;21031;-29
2022/08/17 03:26:01;;;;;;;8.32;7.53;;;26.70;55.60;;;;;;4933480;52;20992;-32
2022/08/17 03:31:02;;;;;;;8.27;7.37;;;26.70;56.20;;;;;;4915677;52;20991;-27
2022/08/17 03:36:03;;;;;;;7.93;7.12;;;26.70;55.60;;;;;;4942994;52;21470;-26
2022/08/17 03:41:05;;;;;;;7.20;6.53;;;26.70;55.60;;;;;;4966914;52;20991;-26
2022/08/17 03:56:57;;;;;;;7.62;6.93;;;26.70;55.60;;;;;;4909960;52;21004;-29
2022/08/17 04:02:21;;;;;;;7.93;7.07;;;26.70;55.50;;;;;;4930042;52;21485;-27
2022/08/17 04:07:24;;;;;;;6.80;6.20;;;26.70;55.50;;;;;;4909987;53;21007;-29
2022/08/17 04:12:29;;;;;;;8.43;6.80;;;26.70;55.50;;;;;;4909581;56;21054;-28
2022/08/17 04:17:30;;;;;;;7.25;6.55;;;26.70;55.50;;;;;;4924681;52;20971;-28
2022/08/17 04:22:31;;;;;;;7.10;6.40;;;26.70;55.60;;;;;;4912883;52;21876;-29
2022/08/17 04:27:32;;;;;;;6.60;6.00;;;26.70;55.40;;;;;;4927470;52;21027;-29
2022/08/17 04:32:52;;;;;;;6.93;6.25;;;26.70;55.50;;;;;;4952919;52;20987;-28
2022/08/17 04:37:54;;;;;;;6.50;5.90;;;26.70;55.40;;;;;;4924589;52;21023;-30
2022/08/17 04:43:03;;;;;;;7.10;6.50;;;26.70;55.40;;;;;;4938588;52;21014;-28
2022/08/17 04:48:04;;;;;;;7.00;6.18;;;26.70;55.40;;;;;;4951210;52;21249;-31
2022/08/17 04:53:05;;;;;;;6.82;6.00;;;26.70;55.40;;;;;;4948050;52;20979;-27
2022/08/17 04:58:08;;;;;;;6.95;6.10;;;26.70;55.30;;;;;;4919149;52;21043;-28
2022/08/17 05:03:09;;;;;;;8.38;6.30;;;26.70;55.90;;;;;;4949709;52;21014;-28
2022/08/17 05:08:10;;;;;;;6.32;5.72;;;26.70;55.20;;;;;;4977675;52;20991;-32
2022/08/17 05:13:21;;;;;;;7.20;5.90;;;26.70;55.20;;;;;;4923837;52;21003;-25
2022/08/17 05:18:22;;;;;;;6.65;6.00;;;26.70;55.20;;;;;;4932452;52;20972;-25
2022/08/17 05:23:26;;;;;;;7.15;5.70;;;26.70;55.20;;;;;;4966184;52;21047;-26
2022/08/17 05:28:27;;;;;;;7.55;6.28;;;26.70;55.20;;;;;;4952787;52;21001;-29
2022/08/17 05:33:32;;;;;;;6.85;6.12;;;26.70;55.10;;;;;;4940340;52;21011;-28
2022/08/17 05:38:34;;;;;;;7.68;6.35;;;26.70;55.10;;;;;;4921055;52;21484;-25
2022/08/17 05:43:38;;;;;;;7.28;6.30;;;26.60;55.10;;;;;;4938951;52;21529;-35
2022/08/17 05:48:43;;;;;;;7.20;5.82;;;26.60;55.10;;;;;;4909869;56;20979;-35
2022/08/17 05:54:14;;;;;;;8.18;5.85;;;26.60;55.10;;;;;;4910103;56;21054;-30
2022/08/17 05:59:47;;;;;;;6.95;5.93;;;26.60;55.10;;;;;;4912277;52;21091;-28
2022/08/17 06:06:36;;;;;;;6.85;6.15;;;26.60;55.10;;;;;;4972602;52;21465;-27
2022/08/17 06:11:52;;;;;;;7.20;6.32;;;26.60;55.10;;;;;;4939983;52;21529;-27
2022/08/17 06:17:04;;;;;;;7.53;6.13;;;26.60;55.10;;;;;;4917383;52;21055;-27
2022/08/17 06:22:07;;;;;;;7.37;6.07;;;26.60;55.10;;;;;;4981878;52;21693;-27
2022/08/17 06:27:29;;;;;;;7.32;6.25;;;26.60;55.10;;;;;;4916447;52;21469;-27
2022/08/17 06:32:30;;;;;;;6.35;5.72;;;26.60;55.10;;;;;;4970167;52;21449;-28
2022/08/17 06:37:47;;;;;;;7.90;6.45;;;26.60;55.10;;;;;;4941971;52;21461;-25
2022/08/17 06:46:26;;;;;;;10.02;7.03;;;26.60;55.10;;;;;;4934039;52;21543;-32
2022/08/17 06:51:39;;;;;;;14.20;9.57;;;26.60;55.10;;;;;;4958303;52;21469;-34
2022/08/17 06:57:17;;;;;;;30.00;21.12;;;26.60;55.20;;;;;;4910039;56;22116;-26
2022/08/17 07:02:58;;;;;;;29.58;21.30;;;26.50;55.50;;;;;;4974288;52;21058;-35
2022/08/17 07:08:21;;;;;;;40.53;22.90;;;26.50;55.60;;;;;;4932931;52;20987;-31
2022/08/17 07:15:13;;;;;;;46.60;30.05;;;26.60;55.60;;;;;;4918676;52;21007;-27
2022/08/17 07:20:21;;;;;;;42.72;25.45;;;26.60;55.70;;;;;;4922330;52;21502;-31
2022/08/17 07:25:22;;;;;;;39.25;24.92;;;26.60;56.00;;;;;;4909980;52;21465;-29
2022/08/17 07:30:25;;;;;;;41.90;24.48;;;26.60;55.80;;;;;;4987833;52;20979;-30
2022/08/17 07:35:40;;;;;;;34.67;22.70;;;26.60;55.80;;;;;;4908955;52;20995;-27
2022/08/17 07:41:06;;;;;;;31.12;20.12;;;26.60;56.30;;;;;;4990745;52;21039;-34
2022/08/17 07:52:08;;;;;;;27.27;19.12;;;26.70;55.80;;;;;;4909925;56;21007;-26
2022/08/17 07:57:33;;;;;;;28.52;20.55;;;26.70;55.90;;;;;;4914591;52;20980;-30
2022/08/17 08:02:37;;;;;;;33.40;20.73;;;26.70;55.90;;;;;;4909757;56;20991;-28
2022/08/17 08:07:56;;;;;;;24.67;18.80;;;26.70;55.70;;;;;;4976995;52;20983;-32
2022/08/17 08:13:23;;;;;;;28.15;18.87;;;26.70;55.80;;;;;;4946537;52;21152;-29
2022/08/17 08:18:34;;;;;;;27.60;18.10;;;26.80;56.20;;;;;;4914961;52;21850;-26
2022/08/17 08:23:56;;;;;;;28.70;17.77;;;26.80;55.90;;;;;;4954992;52;20995;-31
2022/08/17 08:30:18;;;;;;;29.52;19.15;;;26.80;55.80;;;;;;4945176;52;21512;-29
2022/08/17 08:35:36;;;;;;;27.65;18.55;;;26.90;55.70;;;;;;4971648;52;21552;-32
2022/08/17 08:42:17;;;;;;;24.48;18.15;;;26.90;55.60;;;;;;4930291;52;21492;-27
2022/08/17 08:49:19;;;;;;;34.75;21.33;;;26.90;55.60;;;;;;4931637;52;21505;-33
2022/08/17 08:54:43;;;;;;;36.53;24.67;;;26.90;55.70;;;;;;4928815;52;20963;-27
2022/08/17 09:00:13;;;;;;;37.08;29.08;;;26.90;55.80;;;;;;4925976;52;21553;-31
2022/08/17 09:05:46;;;;;;;43.70;31.17;;;27.00;56.00;;;;;;4936282;52;21470;-29
2022/08/17 09:11:05;;;;;;;46.28;31.80;;;27.00;56.20;;;;;;4930607;52;21620;-32
2022/08/17 09:16:19;;;;;;;42.70;30.92;;;27.00;56.40;;;;;;4908659;52;21482;-29
2022/08/17 09:21:30;;;;;;;43.45;31.15;;;27.00;56.50;;;;;;4932797;52;20979;-35
2022/08/17 09:26:58;;;;;;;42.97;32.08;;;27.10;56.60;;;;;;4955988;52;21018;-32
2022/08/17 09:32:02;;;;;;;47.78;34.58;;;27.10;56.70;;;;;;4925428;52;22012;-28
2022/08/17 09:38:16;;;;;;;52.38;38.88;;;27.10;56.80;;;;;;4909881;56;21459;-32
2022/08/17 09:46:08;;;;;;;60.03;41.33;;;27.20;57.30;;;;;;4929624;52;21449;-29
2022/08/17 09:51:38;;;;;;;54.33;40.17;;;27.20;57.70;;;;;;4920327;52;20968;-33
2022/08/17 10:00:15;;;;;;;51.95;38.90;;;27.30;58.00;;;;;;4916547;52;21532;-26
2022/08/17 10:05:45;;;;;;;51.25;37.45;;;27.30;58.30;;;;;;4955422;52;21684;-36
2022/08/17 10:13:34;;;;;;;48.05;35.05;;;27.40;58.40;;;;;;4924300;52;21557;-25
2022/08/17 10:19:00;;;;;;;49.97;35.13;;;27.40;58.40;;;;;;4966608;52;21461;-33
2022/08/17 10:30:00;;;;;;;41.97;32.00;;;27.50;58.60;;;;;;4909405;52;21579;-30
2022/08/17 10:36:26;;;;;;;43.17;31.73;;;27.50;58.60;;;;;;4912935;52;21065;-31
2022/08/17 10:41:40;;;;;;;41.55;30.48;;;27.50;58.60;;;;;;4953249;52;22116;-27
2022/08/17 10:53:35;;;;;;;44.33;29.95;;;27.60;58.60;;;;;;4931848;52;21486;-31
2022/08/17 11:01:14;;;;;;;36.17;28.73;;;27.60;58.00;;;;;;4916829;52;21513;-31
2022/08/17 11:07:03;;;;;;;41.97;30.12;;;27.70;56.90;;;;;;5009163;52;21015;-32
2022/08/17 11:14:31;;;;;;;40.67;29.90;;;27.70;56.80;;;;;;4920320;52;21039;-31
2022/08/17 11:27:15;;;;;;;41.22;29.63;;;27.70;57.50;;;;;;4908267;56;20975;-32
2022/08/17 11:32:45;;;;;;;36.08;27.30;;;27.60;56.80;;;;;;4950457;52;20983;-28
2022/08/17 11:41:03;;;;;;;34.55;27.42;;;27.60;56.80;;;;;;4946903;52;20967;-34
2022/08/17 11:54:46;;;;;;;34.05;25.60;;;27.50;56.50;;;;;;4909773;52;22094;-34
2022/08/17 12:00:45;;;;;;;41.15;31.60;;;27.50;56.50;;;;;;4925642;52;21027;-37
2022/08/17 12:05:47;;;;;;;39.25;30.08;;;27.60;55.10;;;;;;4934841;52;20991;-34
2022/08/17 12:10:58;;;;;;;33.88;24.75;;;27.70;54.90;;;;;;4937493;52;20991;-37
2022/08/17 12:15:59;;;;;;;26.20;21.10;;;27.80;54.70;;;;;;4933874;52;21497;-29
2022/08/17 12:22:54;;;;;;;24.67;19.90;;;27.80;54.40;;;;;;4929673;52;21019;-32
2022/08/17 12:27:58;;;;;;;28.60;22.83;;;27.80;53.80;;;;;;4913320;52;21616;-35
2022/08/17 12:32:59;;;;;;;26.95;21.42;;;27.90;53.30;;;;;;4910314;56;21213;-27
2022/08/17 12:38:03;;;;;;;26.52;20.08;;;27.90;52.90;;;;;;4909708;56;21537;-27
2022/08/17 12:43:07;;;;;;;24.23;18.58;;;27.90;52.50;;;;;;4909877;56;21532;-31
2022/08/17 12:48:12;;;;;;;23.98;17.58;;;27.90;52.00;;;;;;4994361;52;21533;-25
2022/08/17 12:53:29;;;;;;;27.33;21.33;;;27.90;51.70;;;;;;4988609;52;20978;-31
2022/08/17 12:58:46;;;;;;;37.35;25.30;;;27.90;51.50;;;;;;4970351;52;21564;-35
2022/08/17 13:03:51;;;;;;;35.50;26.45;;;28.00;51.50;;;;;;4932192;52;21493;-27
2022/08/17 13:08:52;;;;;;;34.22;26.30;;;28.00;51.30;;;;;;4920849;52;20995;-29
2022/08/17 13:13:54;;;;;;;39.88;28.58;;;28.00;51.40;;;;;;4922371;52;21091;-30
2022/08/17 13:20:52;;;;;;;40.25;31.73;;;28.00;51.60;;;;;;4982066;52;21512;-35
2022/08/17 13:25:54;;;;;;;40.42;31.87;;;28.00;50.90;;;;;;4912740;52;21043;-30
2022/08/17 13:31:47;;;;;;;33.78;28.05;;;28.00;50.70;;;;;;4922309;52;20955;-27
2022/08/17 13:36:48;;;;;;;36.20;27.13;;;28.00;50.30;;;;;;4927037;52;21556;-34
2022/08/17 13:41:51;;;;;;;26.75;22.33;;;28.00;50.20;;;;;;4931374;52;20975;-33
2022/08/17 13:46:52;;;;;;;25.73;20.23;;;28.00;49.60;;;;;;4923599;52;21041;-33
2022/08/17 13:51:53;;;;;;;23.17;18.77;;;28.00;50.00;;;;;;4929456;52;21089;-32
2022/08/17 13:57:21;;;;;;;18.92;16.52;;;28.10;49.00;;;;;;4909806;56;20991;-35
2022/08/17 14:02:23;;;;;;;17.92;14.15;;;28.10;48.40;;;;;;4916191;52;20975;-29
2022/08/17 14:07:33;;;;;;;18.17;15.82;;;28.10;48.10;;;;;;4931416;52;21011;-34
2022/08/17 14:12:38;;;;;;;24.90;19.73;;;28.20;48.20;;;;;;4919852;52;20995;-36
2022/08/17 14:17:39;;;;;;;27.50;19.98;;;28.20;48.40;;;;;;4942708;52;21039;-28
2022/08/17 14:22:45;;;;;;;24.10;20.33;;;28.20;48.70;;;;;;4910479;52;21106;-32
2022/08/17 14:27:46;;;;;;;26.70;20.65;;;28.20;49.00;;;;;;4923141;52;22155;-31
2022/08/17 14:32:48;;;;;;;30.73;26.17;;;28.20;49.20;;;;;;4933034;52;21465;-32
2022/08/17 14:37:50;;;;;;;41.80;31.25;;;28.20;49.20;;;;;;4909415;56;21556;-27
2022/08/17 14:42:53;;;;;;;37.38;30.02;;;28.20;48.80;;;;;;4927074;52;20975;-25
2022/08/17 14:47:54;;;;;;;35.67;28.70;;;28.10;49.20;;;;;;5017806;52;21486;-29
2022/08/17 14:52:55;;;;;;;37.08;29.37;;;28.00;49.60;;;;;;4924888;52;20996;-35
2022/08/17 14:57:56;;;;;;;38.13;29.40;;;28.00;49.90;;;;;;4918777;52;20999;-30
2022/08/17 15:02:58;;;;;;;35.88;28.20;;;27.90;50.10;;;;;;4924541;52;20996;-29
2022/08/17 15:08:01;;;;;;;36.47;28.62;;;27.80;50.80;;;;;;4948125;52;21066;-28
2022/08/17 15:13:01;;;;;;;32.80;28.17;;;27.80;50.40;;;;;;4909439;56;21087;-26
2022/08/17 15:18:02;;;;;;;34.30;28.02;;;27.80;50.60;;;;;;4975473;52;21014;-32
2022/08/17 15:23:03;;;;;;;34.78;27.62;;;27.70;50.70;;;;;;4948196;52;20995;-33
2022/08/17 15:28:06;;;;;;;31.83;26.98;;;27.70;50.90;;;;;;4908734;56;21104;-35
2022/08/17 15:33:07;;;;;;;33.17;27.20;;;27.70;51.00;;;;;;4963454;52;21552;-33
2022/08/17 15:38:09;;;;;;;32.85;26.35;;;27.60;51.80;;;;;;4947683;52;21031;-35
2022/08/17 15:43:14;;;;;;;33.00;26.42;;;27.60;51.30;;;;;;4938054;52;21026;-31
2022/08/17 15:48:15;;;;;;;31.25;26.27;;;27.60;51.40;;;;;;4909003;56;21015;-33
2022/08/17 15:53:15;;;;;;;29.63;25.45;;;27.60;51.50;;;;;;4928334;52;21042;-31
2022/08/17 15:58:16;;;;;;;32.05;27.15;;;27.60;51.60;;;;;;4935535;52;21022;-34
2022/08/17 16:03:17;;;;;;;30.98;26.02;;;27.50;51.70;;;;;;4920062;52;21027;-34
2022/08/17 16:08:18;;;;;;;29.85;26.05;;;27.50;51.80;;;;;;4911238;52;21046;-26
2022/08/17 16:13:19;;;;;;;32.65;26.90;;;27.50;51.80;;;;;;4934915;52;21102;-29
2022/08/17 16:18:21;;;;;;;30.12;26.20;;;27.50;51.90;;;;;;4914039;52;21441;-35
2022/08/17 16:23:22;;;;;;;31.15;26.65;;;27.50;52.00;;;;;;4943461;52;21127;-30
2022/08/17 16:28:23;;;;;;;31.55;26.12;;;27.50;52.10;;;;;;4910945;52;21315;-33
2022/08/17 16:33:23;;;;;;;31.05;26.37;;;27.50;52.20;;;;;;4918105;52;20995;-31
2022/08/17 16:38:24;;;;;;;28.60;25.27;;;27.50;52.20;;;;;;4916744;52;20991;-25
2022/08/17 16:43:25;;;;;;;29.92;25.27;;;27.50;52.30;;;;;;4942221;52;21011;-34
2022/08/17 16:48:27;;;;;;;32.38;27.42;;;27.50;52.40;;;;;;4935875;52;21054;-35
2022/08/17 16:53:28;;;;;;;31.27;26.00;;;27.50;52.40;;;;;;4910795;53;21548;-31
2022/08/17 16:58:29;;;;;;;32.13;25.83;;;27.50;52.90;;;;;;4912346;52;20999;-34
2022/08/17 17:03:30;;;;;;;30.48;27.13;;;27.40;52.50;;;;;;4926638;52;21039;-34
2022/08/17 17:08:48;;;;;;;30.65;26.02;;;27.40;52.60;;;;;;4939754;52;21050;-26
2022/08/17 17:13:58;;;;;;;29.67;26.40;;;27.50;52.70;;;;;;4910984;52;21016;-37
2022/08/17 17:19:23;;;;;;;30.00;25.92;;;27.40;52.70;;;;;;4923398;52;21552;-34
2022/08/17 17:27:06;;;;;;;29.03;25.73;;;27.40;52.70;;;;;;4910237;56;20995;-30
2022/08/17 17:32:34;;;;;;;28.70;25.25;;;27.40;52.80;;;;;;4919354;52;21476;-35
2022/08/17 17:37:39;;;;;;;26.62;23.83;;;27.40;52.90;;;;;;4909940;56;21470;-25
2022/08/17 17:42:42;;;;;;;30.48;26.23;;;27.40;52.90;;;;;;4931905;52;20987;-31
2022/08/17 17:47:43;;;;;;;30.50;25.92;;;27.40;53.00;;;;;;4928894;52;20983;-30
2022/08/17 17:52:52;;;;;;;28.60;25.50;;;27.40;53.00;;;;;;4958694;52;21035;-34
2022/08/17 17:59:03;;;;;;;30.12;25.95;;;27.40;53.10;;;;;;4916242;52;21548;-32
2022/08/17 18:04:25;;;;;;;28.12;25.08;;;27.40;53.10;;;;;;4941324;52;21048;-33
2022/08/17 18:09:55;;;;;;;28.30;25.10;;;27.40;53.20;;;;;;5034796;52;20999;-32
2022/08/17 18:16:00;;;;;;;27.40;24.52;;;27.40;53.30;;;;;;4917878;52;21035;-34
2022/08/17 18:21:13;;;;;;;29.83;25.00;;;27.40;53.30;;;;;;4928121;52;21533;-32
2022/08/17 18:26:35;;;;;;;27.35;24.40;;;27.40;53.30;;;;;;4962185;52;21576;-32
2022/08/17 18:31:36;;;;;;;27.42;23.98;;;27.40;53.40;;;;;;4914184;52;21489;-34
2022/08/17 18:36:37;;;;;;;27.98;24.75;;;27.40;53.50;;;;;;4927108;52;21039;-30
2022/08/17 18:41:43;;;;;;;27.83;24.45;;;27.30;53.50;;;;;;4953905;52;20999;-34
2022/08/17 18:46:44;;;;;;;27.83;24.52;;;27.40;53.50;;;;;;4970532;52;20999;-34
2022/08/17 18:51:45;;;;;;;27.10;24.12;;;27.30;53.50;;;;;;4922695;52;21480;-34
2022/08/17 18:57:04;;;;;;;26.08;23.27;;;27.30;53.50;;;;;;4939161;52;21571;-36
2022/08/17 19:02:52;;;;;;;27.42;23.83;;;27.30;54.20;;;;;;4913159;52;20960;-31
2022/08/17 19:08:12;;;;;;;26.37;23.25;;;27.30;53.60;;;;;;4918270;52;20999;-35
2022/08/17 19:13:37;;;;;;;26.85;24.00;;;27.30;53.70;;;;;;4958755;52;21015;-31
2022/08/17 19:18:49;;;;;;;28.83;24.05;;;27.30;53.80;;;;;;4933325;52;21038;-35
2022/08/17 19:24:02;;;;;;;25.67;22.87;;;27.40;53.80;;;;;;4955039;52;21538;-34
2022/08/17 19:29:15;;;;;;;27.40;24.10;;;27.30;53.80;;;;;;4930985;52;20968;-32
2022/08/17 19:34:18;;;;;;;26.60;23.15;;;27.30;53.80;;;;;;4970629;52;21430;-33
2022/08/17 19:40:34;;;;;;;27.15;23.73;;;27.40;53.90;;;;;;4912068;52;20979;-29
2022/08/17 19:48:50;;;;;;;27.50;23.30;;;27.30;53.90;;;;;;4919714;52;20964;-26
2022/08/17 19:54:03;;;;;;;24.77;21.92;;;27.30;54.10;;;;;;4914852;52;20966;-28
2022/08/17 20:06:04;;;;;;;26.27;22.83;;;27.30;54.10;;;;;;4950016;52;21085;-35
2022/08/17 20:11:28;;;;;;;24.70;21.95;;;27.30;54.10;;;;;;4963588;52;21059;-32
2022/08/17 20:16:32;;;;;;;27.10;24.00;;;27.30;54.20;;;;;;4924463;52;21605;-33
2022/08/17 20:21:55;;;;;;;24.23;21.62;;;27.30;54.30;;;;;;4975298;52;21003;-35
2022/08/17 20:27:06;;;;;;;25.15;22.08;;;27.30;54.30;;;;;;4943783;52;21035;-26
2022/08/17 20:32:17;;;;;;;24.67;21.40;;;27.30;54.40;;;;;;4929195;52;21030;-34
2022/08/17 20:37:29;;;;;;;23.48;20.95;;;27.30;54.40;;;;;;4958387;52;21062;-32
2022/08/17 20:42:32;;;;;;;23.83;21.33;;;27.30;54.50;;;;;;4910708;56;21014;-32
2022/08/17 20:47:42;;;;;;;23.25;20.73;;;27.30;54.50;;;;;;4932595;52;20987;-26
2022/08/17 20:52:55;;;;;;;24.90;21.12;;;27.30;54.50;;;;;;4912400;52;20991;-35
2022/08/17 20:58:37;;;;;;;24.50;21.00;;;27.30;54.60;;;;;;4925977;52;21015;-32
2022/08/17 21:03:45;;;;;;;22.15;19.85;;;27.30;54.60;;;;;;4910262;53;21067;-33
2022/08/17 21:09:20;;;;;;;22.35;19.37;;;27.30;54.60;;;;;;4946986;52;21121;-34
2022/08/17 21:15:27;;;;;;;21.30;19.00;;;27.30;54.70;;;;;;4909930;53;21386;-33
2022/08/17 21:20:56;;;;;;;23.05;19.17;;;27.30;54.70;;;;;;4926892;52;21529;-35
2022/08/17 21:26:16;;;;;;;22.10;19.33;;;27.30;54.70;;;;;;4978192;52;21059;-31
2022/08/17 21:31:30;;;;;;;22.23;19.50;;;27.30;54.80;;;;;;4957679;52;20984;-33
2022/08/17 21:36:32;;;;;;;21.12;18.83;;;27.30;54.90;;;;;;4951668;52;20963;-33
2022/08/17 21:41:44;;;;;;;21.02;18.70;;;27.20;54.80;;;;;;4916016;52;21035;-29
2022/08/17 21:46:48;;;;;;;22.33;19.27;;;27.20;54.80;;;;;;4929047;52;21544;-33
2022/08/17 21:51:55;;;;;;;20.50;18.40;;;27.20;54.90;;;;;;4924900;52;21497;-32
2022/08/17 21:56:58;;;;;;;19.85;17.73;;;27.30;55.00;;;;;;4943975;52;21039;-32
2022/08/17 22:02:07;;;;;;;20.37;18.23;;;27.20;55.00;;;;;;5009725;52;21541;-36
2022/08/17 22:07:13;;;;;;;20.00;17.98;;;27.20;55.00;;;;;;4910605;56;21036;-32
2022/08/17 22:12:23;;;;;;;19.52;17.48;;;27.20;55.00;;;;;;5000862;52;21027;-33
2022/08/17 22:17:34;;;;;;;19.48;17.37;;;27.20;55.10;;;;;;4962212;52;21429;-32
2022/08/17 22:28:03;;;;;;;19.62;17.52;;;27.20;55.10;;;;;;4908948;56;21545;-33
2022/08/17 22:34:25;;;;;;;19.30;17.20;;;27.20;55.10;;;;;;4921277;52;21034;-35
2022/08/17 22:39:44;;;;;;;18.08;16.15;;;27.20;55.20;;;;;;4909882;53;21489;-30
2022/08/17 22:44:47;;;;;;;18.40;16.45;;;27.20;55.20;;;;;;4909380;56;20992;-35
2022/08/17 22:49:58;;;;;;;19.58;17.15;;;27.20;55.20;;;;;;4920302;52;20991;-27
2022/08/17 23:00:45;;;;;;;18.85;16.40;;;27.20;55.30;;;;;;4922552;52;21011;-32
2022/08/17 23:06:05;;;;;;;18.33;16.42;;;27.20;55.30;;;;;;4948879;52;21058;-33
2022/08/17 23:11:06;;;;;;;17.92;15.82;;;27.20;55.50;;;;;;4915566;52;20971;-30
2022/08/17 23:16:06;;;;;;;17.80;15.93;;;27.20;55.30;;;;;;4910119;52;21501;-26
2022/08/17 23:21:07;;;;;;;17.58;15.75;;;27.20;55.40;;;;;;4927919;52;20987;-35
2022/08/17 23:26:10;;;;;;;16.30;14.55;;;27.20;55.30;;;;;;4915701;52;21058;-27
2022/08/17 23:31:14;;;;;;;16.77;14.90;;;27.20;55.40;;;;;;4920096;52;21469;-28
2022/08/17 23:36:16;;;;;;;17.02;15.23;;;27.20;55.40;;;;;;4915258;52;21532;-26
2022/08/17 23:41:18;;;;;;;15.90;14.25;;;27.20;55.40;;;;;;4996255;52;20971;-35
2022/08/17 23:46:23;;;;;;;17.37;15.57;;;27.20;55.40;;;;;;4943857;52;20971;-34
2022/08/17 23:51:29;;;;;;;16.75;14.90;;;27.20;55.40;;;;;;4931728;52;21581;-35
2022/08/17 23:56:32;;;;;;;16.73;14.98;;;27.20;55.40;;;;;;4931473;52;21014;-30
